createdAt,value
2023-03-31T00:01:19.992Z,99575.81
2023-03-31T00:05:24.128Z,99580.94
2023-03-31T00:09:01.389Z,99575.47
2023-03-31T00:12:30.366Z,99577.98
2023-03-31T00:16:02.163Z,99572.48
2023-03-31T00:20:08.341Z,99570.63
2023-03-31T00:23:51.330Z,99573.36
2023-03-31T00:27:18.846Z,99572.31
2023-03-31T00:31:03.898Z,99566.35
2023-03-31T00:34:32.089Z,99570.30
2023-03-31T00:37:58.100Z,99577.73
2023-03-31T00:41:47.604Z,99576.15
2023-03-31T00:45:27.280Z,99576.41
2023-03-31T00:49:34.221Z,99586.00
2023-03-31T00:52:51.589Z,99580.81
2023-03-31T00:56:47.499Z,99576.04
2023-03-31T01:00:19.611Z,99575.65
2023-03-31T01:04:09.299Z,99572.98
2023-03-31T01:07:41.401Z,99569.98
2023-03-31T01:11:25.620Z,99568.40
2023-03-31T01:14:53.237Z,99560.80
2023-03-31T01:18:34.320Z,99561.08
2023-03-31T01:22:25.772Z,99557.92
2023-03-31T01:26:01.682Z,99555.58
2023-03-31T01:29:16.237Z,99556.11
2023-03-31T01:33:40.437Z,99552.87
2023-03-31T01:37:17.843Z,99551.27
2023-03-31T01:40:45.415Z,99550.02
2023-03-31T01:44:14.395Z,99554.84
2023-03-31T01:47:48.994Z,99556.70
2023-03-31T01:51:14.470Z,99555.95
2023-03-31T01:55:02.889Z,99559.41
2023-03-31T01:58:54.921Z,99564.59
2023-03-31T02:02:29.097Z,99563.70
2023-03-31T02:06:14.085Z,99563.50
2023-03-31T02:10:14.033Z,99566.12
2023-03-31T02:13:37.472Z,99567.52
2023-03-31T02:17:41.581Z,99564.05
2023-03-31T02:21:16.975Z,99563.27
2023-03-31T02:24:53.969Z,99562.40
2023-03-31T02:28:18.025Z,99565.55
2023-03-31T02:32:23.391Z,99565.88
2023-03-31T02:35:57.105Z,99565.43
2023-03-31T02:39:36.158Z,99566.83
2023-03-31T02:43:05.523Z,99562.05
2023-03-31T02:46:50.563Z,99560.59
2023-03-31T02:50:34.400Z,99561.95
2023-03-31T02:54:21.006Z,99562.14
2023-03-31T02:58:23.274Z,99557.59
2023-03-31T03:01:50.226Z,99557.86
2023-03-31T03:05:12.624Z,99558.73
2023-03-31T03:08:30.786Z,99558.83
2023-03-31T03:12:27.719Z,99555.54
2023-03-31T03:16:18.117Z,99561.68
2023-03-31T03:19:52.580Z,99569.29
2023-03-31T03:23:06.678Z,99580.25
2023-03-31T03:27:01.122Z,99584.29
2023-03-31T03:30:29.663Z,99587.94
2023-03-31T03:34:21.268Z,99592.06
2023-03-31T03:38:02.219Z,99591.85
2023-03-31T03:41:39.814Z,99592.45
2023-03-31T03:45:17.592Z,99594.09
2023-03-31T03:48:36.299Z,99598.44
2023-03-31T03:52:20.416Z,99598.05
2023-03-31T03:56:31.989Z,99606.08
2023-03-31T03:59:52.505Z,99607.16
2023-03-31T04:03:37.112Z,99607.36
2023-03-31T04:07:08.048Z,99611.46
2023-03-31T04:10:52.568Z,99609.01
2023-03-31T04:14:13.241Z,99607.64
2023-03-31T04:18:22.359Z,99608.69
2023-03-31T04:22:02.002Z,99611.95
2023-03-31T04:25:16.661Z,99609.84
2023-03-31T04:29:28.179Z,99607.34
2023-03-31T04:32:43.939Z,99605.44
2023-03-31T04:36:35.280Z,99603.86
2023-03-31T04:39:54.745Z,99597.77
2023-03-31T04:43:39.292Z,99595.08
2023-03-31T04:47:22.832Z,99596.09
2023-03-31T04:51:24.064Z,99597.13
2023-03-31T04:55:01.833Z,99594.76
2023-03-31T04:58:49.638Z,99585.80
2023-03-31T05:02:24.899Z,99585.23
2023-03-31T05:05:55.056Z,99586.34
2023-03-31T05:09:42.832Z,99586.46
2023-03-31T05:12:53.916Z,99586.61
2023-03-31T05:16:38.495Z,99585.98
2023-03-31T05:20:22.657Z,99588.98
2023-03-31T05:24:10.671Z,99593.98
2023-03-31T05:27:44.823Z,99593.88
2023-03-31T05:31:47.924Z,99587.33
2023-03-31T05:35:34.095Z,99588.69
2023-03-31T05:38:48.363Z,99584.21
2023-03-31T05:42:47.524Z,99578.45
2023-03-31T05:45:59.453Z,99579.20
2023-03-31T05:50:01.541Z,99575.05
2023-03-31T05:53:22.710Z,99576.54
2023-03-31T05:57:19.879Z,99576.73
2023-03-31T06:01:02.543Z,99571.48
2023-03-31T06:04:32.216Z,99575.09
2023-03-31T06:08:09.440Z,99569.61
2023-03-31T06:11:50.672Z,99567.39
2023-03-31T06:15:18.206Z,99561.39
2023-03-31T06:18:46.121Z,99557.75
2023-03-31T06:22:31.859Z,99562.27
2023-03-31T06:26:12.748Z,99563.44
2023-03-31T06:29:46.232Z,99564.84
2023-03-31T06:33:51.914Z,99566.16
2023-03-31T06:37:25.213Z,99559.46
2023-03-31T06:40:46.252Z,99555.33
2023-03-31T06:44:40.903Z,99559.77
2023-03-31T06:48:08.391Z,99556.26
2023-03-31T06:51:53.012Z,99557.50
2023-03-31T06:55:54.458Z,99556.48
2023-03-31T06:59:39.969Z,99554.59
2023-03-31T07:03:03.738Z,99544.39
2023-03-31T07:06:40.685Z,99549.23
2023-03-31T07:10:26.601Z,99549.33
2023-03-31T07:13:44.922Z,99546.48
2023-03-31T07:17:30.442Z,99552.66
2023-03-31T07:21:15.041Z,99554.27
2023-03-31T07:25:03.145Z,99555.70
2023-03-31T07:28:35.524Z,99560.44
2023-03-31T07:32:22.504Z,99546.05
2023-03-31T07:36:12.921Z,99542.59
2023-03-31T07:40:01.929Z,99545.41
2023-03-31T07:43:57.104Z,99540.40
2023-03-31T07:47:13.847Z,99536.24
2023-03-31T07:51:21.891Z,99540.91
2023-03-31T07:54:41.608Z,99539.63
2023-03-31T07:58:12.920Z,99534.95
2023-03-31T08:02:07.833Z,99530.55
2023-03-31T08:05:52.728Z,99523.27
2023-03-31T08:09:13.158Z,99524.39
2023-03-31T08:12:56.196Z,99521.56
2023-03-31T08:16:38.546Z,99516.68
2023-03-31T08:20:23.434Z,99508.70
2023-03-31T08:24:22.406Z,99504.68
2023-03-31T08:27:59.695Z,99506.32
2023-03-31T08:31:33.842Z,99503.98
2023-03-31T08:35:03.599Z,99499.08
2023-03-31T08:38:37.866Z,99495.64
2023-03-31T08:42:27.554Z,99493.20
2023-03-31T08:46:14.273Z,99485.86
2023-03-31T08:49:59.957Z,99485.59
2023-03-31T08:53:45.702Z,99484.34
2023-03-31T08:57:31.755Z,99478.85
2023-03-31T09:01:24.729Z,99472.79
2023-03-31T09:05:23.771Z,99480.77
2023-03-31T09:09:14.578Z,99481.36
2023-03-31T09:13:07.498Z,99472.25
2023-03-31T09:16:25.956Z,99467.10
2023-03-31T09:20:17.204Z,99462.00
2023-03-31T09:24:11.665Z,99462.08
2023-03-31T09:27:49.554Z,99455.55
2023-03-31T09:31:34.884Z,99451.83
2023-03-31T09:35:24.792Z,99449.17
2023-03-31T09:38:36.732Z,99446.76
2023-03-31T09:42:16.721Z,99444.95
2023-03-31T09:46:09.649Z,99444.91
2023-03-31T09:49:53.586Z,99444.17
2023-03-31T09:53:04.280Z,99441.90
2023-03-31T09:56:53.152Z,99436.08
2023-03-31T10:01:02.598Z,99434.30
2023-03-31T10:04:23.075Z,99429.87
2023-03-31T10:08:23.600Z,99428.25
2023-03-31T10:11:29.309Z,99414.55
2023-03-31T10:15:24.510Z,99410.24
2023-03-31T10:19:25.350Z,99407.61
2023-03-31T10:22:50.212Z,99402.52
2023-03-31T10:26:54.370Z,99396.20
2023-03-31T10:30:03.910Z,99394.41
2023-03-31T10:33:59.882Z,99391.01
2023-03-31T10:37:28.179Z,99384.40
2023-03-31T10:41:30.807Z,99377.68
2023-03-31T10:45:23.248Z,99377.32
2023-03-31T10:48:39.911Z,99380.83
2023-03-31T10:52:13.180Z,99379.34
2023-03-31T10:56:00.620Z,99374.75
2023-03-31T10:59:34.342Z,99367.79
2023-03-31T11:03:33.061Z,99371.08
2023-03-31T11:07:29.506Z,99361.00
2023-03-31T11:11:31.364Z,99359.21
2023-03-31T11:15:07.079Z,99352.69
2023-03-31T11:18:41.084Z,99356.08
2023-03-31T11:22:30.297Z,99354.17
2023-03-31T11:26:38.548Z,99348.10
2023-03-31T11:30:06.483Z,99341.25
2023-03-31T11:33:47.628Z,99334.96
2023-03-31T11:37:31.844Z,99325.14
2023-03-31T11:41:34.415Z,99322.05
2023-03-31T11:44:56.388Z,99317.58
2023-03-31T11:48:44.911Z,99321.98
2023-03-31T11:52:31.898Z,99312.31
2023-03-31T11:56:18.043Z,99303.81
2023-03-31T11:59:57.979Z,99296.48
2023-03-31T12:03:46.364Z,99293.45
2023-03-31T12:07:25.951Z,99291.98
2023-03-31T12:11:12.456Z,99286.41
2023-03-31T12:15:18.780Z,99283.46
2023-03-31T12:18:39.444Z,99279.94
2023-03-31T12:22:15.470Z,99269.39
2023-03-31T12:26:28.569Z,99265.29
2023-03-31T12:29:57.956Z,99260.76
2023-03-31T12:33:32.538Z,99255.77
2023-03-31T12:37:06.130Z,99251.38
2023-03-31T12:41:14.243Z,99240.69
2023-03-31T12:44:36.528Z,99230.13
2023-03-31T12:48:31.210Z,99235.87
2023-03-31T12:51:57.263Z,99225.74
2023-03-31T12:55:43.274Z,99225.45
2023-03-31T12:59:35.545Z,99223.67
2023-03-31T13:03:34.127Z,99218.61
2023-03-31T13:07:38.401Z,99215.83
2023-03-31T13:11:23.800Z,99207.38
2023-03-31T13:15:15.971Z,99202.70
2023-03-31T13:18:53.779Z,99192.87
2023-03-31T13:22:48.192Z,99185.55
2023-03-31T13:26:39.816Z,99180.23
2023-03-31T13:30:58.159Z,99180.56
2023-03-31T13:34:19.721Z,99178.52
2023-03-31T13:38:08.878Z,99172.91
2023-03-31T13:41:34.765Z,99175.79
2023-03-31T13:45:06.486Z,99176.85
2023-03-31T13:49:21.106Z,99175.79
2023-03-31T13:52:40.142Z,99171.84
2023-03-31T13:56:38.036Z,99167.59
2023-03-31T14:00:33.570Z,99165.02
2023-03-31T14:04:33.714Z,99160.05
2023-03-31T14:07:42.181Z,99153.06
2023-03-31T14:11:25.720Z,99150.62
2023-03-31T14:15:18.611Z,99146.67
2023-03-31T14:19:43.136Z,99142.89
2023-03-31T14:22:51.966Z,99130.89
2023-03-31T14:26:53.714Z,99121.77
2023-03-31T14:30:32.568Z,99113.73
2023-03-31T14:34:04.677Z,99119.02
2023-03-31T14:37:13.768Z,99120.45
2023-03-31T14:41:01.305Z,99119.82
2023-03-31T14:45:09.200Z,99114.30
2023-03-31T14:48:44.594Z,99109.04
2023-03-31T14:52:30.914Z,99112.43
2023-03-31T14:56:01.031Z,99106.27
2023-03-31T14:59:35.152Z,99104.04
2023-03-31T15:03:13.920Z,99100.05
2023-03-31T15:06:48.722Z,99101.91
2023-03-31T15:10:13.745Z,99096.59
2023-03-31T15:14:14.034Z,99089.67
2023-03-31T15:17:53.810Z,99086.28
2023-03-31T15:21:22.964Z,99082.98
2023-03-31T15:25:12.698Z,99084.09
2023-03-31T15:29:01.803Z,99085.73
2023-03-31T15:32:37.051Z,99087.40
2023-03-31T15:36:38.994Z,99097.61
2023-03-31T15:40:01.301Z,99114.64
2023-03-31T15:44:07.379Z,99125.13
2023-03-31T15:47:30.696Z,99129.24
2023-03-31T15:51:23.698Z,99136.27
2023-03-31T15:54:42.660Z,99131.77
2023-03-31T15:58:18.906Z,99127.73
2023-03-31T16:02:05.927Z,99122.34
2023-03-31T16:06:00.306Z,99117.29
2023-03-31T16:09:42.764Z,99114.91
2023-03-31T16:12:58.704Z,99082.85
2023-03-31T16:17:01.595Z,99054.46
2023-03-31T16:20:24.062Z,99062.67
2023-03-31T16:24:31.363Z,99060.63
2023-03-31T16:27:47.346Z,99057.87
2023-03-31T16:32:10.298Z,99051.16
2023-03-31T16:35:19.933Z,99051.89
2023-03-31T16:38:47.181Z,99050.02
2023-03-31T16:42:46.724Z,99049.73
2023-03-31T16:46:27.467Z,99049.59
2023-03-31T16:49:47.097Z,99041.92
2023-03-31T16:53:48.628Z,99037.61
2023-03-31T16:57:27.493Z,99035.39
2023-03-31T17:01:06.046Z,99030.94
2023-03-31T17:04:42.751Z,99033.92
2023-03-31T17:08:11.455Z,99029.76
2023-03-31T17:11:41.215Z,99022.95
2023-03-31T17:15:35.682Z,99021.98
2023-03-31T17:19:22.378Z,99015.48
2023-03-31T17:23:00.270Z,99011.02
2023-03-31T17:26:28.157Z,99008.55
2023-03-31T17:30:08.420Z,99005.92
2023-03-31T17:33:27.985Z,99010.63
2023-03-31T17:37:04.139Z,99008.13
2023-03-31T17:41:04.904Z,99003.54
2023-03-31T17:44:45.820Z,99000.33
2023-03-31T17:48:03.256Z,99010.70
2023-03-31T17:52:05.069Z,99026.31
2023-03-31T17:55:50.488Z,99064.61
2023-03-31T17:59:18.527Z,99054.38
2023-03-31T18:03:06.249Z,99056.07
2023-03-31T18:06:36.329Z,99060.90
2023-03-31T18:10:19.533Z,99056.15
2023-03-31T18:13:51.184Z,99055.81
2023-03-31T18:17:29.957Z,99051.14
2023-03-31T18:20:47.974Z,99049.29
2023-03-31T18:24:59.299Z,99041.20
2023-03-31T18:28:10.873Z,99039.42
2023-03-31T18:31:53.361Z,99038.17
2023-03-31T18:35:36.149Z,99032.62
2023-03-31T18:39:38.690Z,99029.80
2023-03-31T18:43:17.716Z,99027.45
2023-03-31T18:47:12.958Z,99025.52
2023-03-31T18:50:24.487Z,99027.35
2023-03-31T18:54:08.642Z,99019.52
2023-03-31T18:57:46.125Z,99015.40
2023-03-31T19:01:23.939Z,99007.92
2023-03-31T19:04:59.790Z,99005.21
2023-03-31T19:08:39.432Z,99001.90
2023-03-31T19:12:00.963Z,98994.88
2023-03-31T19:15:39.574Z,98990.84
2023-03-31T19:19:14.166Z,98987.80
2023-03-31T19:23:17.061Z,98989.32
2023-03-31T19:26:35.685Z,98986.68
2023-03-31T19:30:35.254Z,98979.81
2023-03-31T19:34:26.968Z,98969.68
2023-03-31T19:37:45.741Z,98965.48
2023-03-31T19:41:30.200Z,98955.83
2023-03-31T19:45:09.178Z,98959.44
2023-03-31T19:48:27.350Z,98953.67
2023-03-31T19:52:29.144Z,98949.34
2023-03-31T19:56:09.136Z,98941.52
2023-03-31T19:59:26.256Z,98928.73
2023-03-31T20:03:27.420Z,98922.33
2023-03-31T20:06:49.593Z,98923.17
2023-03-31T20:10:51.319Z,98920.59
2023-03-31T20:14:27.629Z,98923.21
2023-03-31T20:17:47.732Z,98928.52
2023-03-31T20:21:42.926Z,98927.08
2023-03-31T20:25:10.149Z,98928.85
2023-03-31T20:28:56.774Z,98926.25
2023-03-31T20:32:59.287Z,98923.06
2023-03-31T20:36:29.127Z,98923.89
2023-03-31T20:39:48.553Z,98923.42
2023-03-31T20:43:50.248Z,98916.31
2023-03-31T20:47:28.996Z,98910.54
2023-03-31T20:51:07.160Z,98907.18
2023-03-31T20:54:26.164Z,98894.45
2023-03-31T20:58:37.605Z,98897.12
2023-03-31T21:01:50.828Z,98896.65
2023-03-31T21:05:43.711Z,98892.67
2023-03-31T21:09:28.662Z,98893.42
2023-03-31T21:12:46.281Z,98890.96
2023-03-31T21:16:21.047Z,98891.98
2023-03-31T21:20:05.219Z,98887.75
2023-03-31T21:23:52.829Z,98889.63
2023-03-31T21:27:29.326Z,98889.30
2023-03-31T21:30:57.357Z,98883.33
2023-03-31T21:34:41.751Z,98882.52
2023-03-31T21:38:41.438Z,98880.84
2023-03-31T21:42:19.815Z,98879.13
2023-03-31T21:45:59.236Z,98872.35
2023-03-31T21:49:45.989Z,98872.34
2023-03-31T21:53:11.788Z,98873.58
2023-03-31T21:56:35.726Z,98872.91
2023-03-31T22:00:15.759Z,98869.11
2023-03-31T22:04:08.584Z,98864.73
2023-03-31T22:07:44.938Z,98864.85
2023-03-31T22:11:22.964Z,98862.66
2023-03-31T22:15:00.175Z,98859.17
2023-03-31T22:18:29.234Z,98852.64
2023-03-31T22:22:01.101Z,98845.00
2023-03-31T22:25:34.616Z,98846.05
2023-03-31T22:29:20.036Z,98843.66
2023-03-31T22:32:55.047Z,98845.36
2023-03-31T22:36:38.681Z,98848.33
2023-03-31T22:40:39.967Z,98847.29
2023-03-31T22:44:11.310Z,98843.05
2023-03-31T22:47:55.864Z,98848.02
2023-03-31T22:51:17.438Z,98845.95
2023-03-31T22:55:10.848Z,98847.40
2023-03-31T22:58:48.859Z,98838.02
2023-03-31T23:02:24.287Z,98831.58
2023-03-31T23:05:45.844Z,98828.80
2023-03-31T23:09:38.697Z,98833.83
2023-03-31T23:13:22.941Z,98821.30
2023-03-31T23:16:43.649Z,98818.63
2023-03-31T23:20:29.240Z,98814.83
2023-03-31T23:24:30.645Z,98818.05
2023-03-31T23:27:51.228Z,98815.90
2023-03-31T23:31:43.568Z,98809.82
2023-03-31T23:35:31.921Z,98808.33
2023-03-31T23:38:52.307Z,98814.92
2023-03-31T23:42:57.052Z,98811.28
2023-03-31T23:46:26.082Z,98809.50
2023-03-31T23:49:54.265Z,98805.41
2023-03-31T23:53:45.694Z,98806.33
2023-03-31T23:57:07.761Z,98807.77
